Time;durP1;ratioP1;P1;durP2;ratioP2;P2;SDS_P1;SDS_P2;PMS_P1;PMS_P2;Temp;Humidity;BMP_temperature;BMP_pressure;BME280_temperature;BME280_humidity;BME280_pressure;Samples;Min_cycle;Max_cycle;Signal;HPM_P1;HPM_P2
2021/10/31 00:02:01;;;;;;;;;36.25;32.25;;;;;12.07;71.48;99953.00;5079387;28;46026;-63
2021/10/31 00:04:27;;;;;;;;;45.50;38.25;;;;;12.04;71.46;99953.31;5079210;28;47323;-62
2021/10/31 00:06:52;;;;;;;;;49.75;39.75;;;;;12.00;71.74;99947.53;5078594;28;62400;-62
2021/10/31 00:09:17;;;;;;;;;50.50;41.00;;;;;11.98;71.62;99946.84;5077314;27;60594;-63
2021/10/31 00:11:43;;;;;;;;;49.25;39.00;;;;;11.95;71.37;99942.72;5078301;28;69779;-62
2021/10/31 00:14:08;;;;;;;;;48.25;37.75;;;;;11.92;71.81;99942.22;5078573;28;56805;-63
2021/10/31 00:16:34;;;;;;;;;53.25;41.00;;;;;11.91;71.28;99945.84;5078191;27;62025;-62
2021/10/31 00:18:59;;;;;;;;;48.50;39.00;;;;;11.86;71.70;99943.69;5079010;28;45414;-62
2021/10/31 00:21:25;;;;;;;;;46.00;36.25;;;;;11.83;71.81;99930.84;5078183;27;67336;-62
2021/10/31 00:23:51;;;;;;;;;43.50;33.25;;;;;11.79;71.26;99935.59;5077471;28;45486;-63
2021/10/31 00:26:16;;;;;;;;;39.25;33.00;;;;;11.77;71.42;99936.72;5078303;27;59325;-62
2021/10/31 00:28:41;;;;;;;;;38.00;31.50;;;;;11.73;71.86;99931.78;5079031;27;45212;-62
2021/10/31 00:31:07;;;;;;;;;35.00;31.50;;;;;11.70;71.60;99937.34;5077446;27;46418;-62
2021/10/31 00:33:32;;;;;;;;;37.50;31.25;;;;;11.68;71.86;99933.25;5078016;27;63276;-64
2021/10/31 00:35:58;;;;;;;;;36.75;31.00;;;;;11.65;71.66;99938.81;5076916;28;63359;-62
2021/10/31 00:38:24;;;;;;;;;31.50;28.00;;;;;11.64;71.85;99937.19;5077426;28;45613;-63
2021/10/31 00:40:50;;;;;;;;;34.50;31.00;;;;;11.61;71.59;99938.31;5078662;28;46524;-62
2021/10/31 00:43:15;;;;;;;;;36.50;31.25;;;;;11.62;71.69;99939.13;5078742;28;45235;-63
2021/10/31 00:45:41;;;;;;;;;31.25;29.00;;;;;11.60;72.06;99941.94;5077058;28;55824;-62
2021/10/31 00:48:07;;;;;;;;;29.00;26.75;;;;;11.58;71.87;99938.66;5077595;27;45391;-62
2021/10/31 00:50:33;;;;;;;;;16.50;13.75;;;;;11.56;72.31;99932.72;5077433;28;45572;-62
2021/10/31 00:52:59;;;;;;;;;31.00;25.75;;;;;11.57;72.16;99937.81;5078515;27;45462;-62
2021/10/31 00:55:24;;;;;;;;;29.75;25.75;;;;;11.56;72.67;99935.34;5060742;28;45448;-61
2021/10/31 00:57:50;;;;;;;;;29.00;25.25;;;;;11.54;72.26;99935.47;5078308;27;45434;-63
2021/10/31 01:03:37;;;;;;;;;26.00;22.75;;;;;11.55;72.69;99929.25;5078501;28;45334;-62
2021/10/31 01:06:26;;;;;;;;;22.00;20.25;;;;;11.58;73.08;99930.75;5078563;27;45407;-62
2021/10/31 01:08:56;;;;;;;;;21.00;19.25;;;;;11.60;73.17;99927.94;5072482;28;45332;-63
2021/10/31 01:11:36;;;;;;;;;23.00;19.75;;;;;11.62;72.95;99924.19;5076717;28;45630;-62
2021/10/31 01:14:39;;;;;;;;;20.25;17.75;;;;;11.63;73.31;99925.84;5077114;28;45785;-63
2021/10/31 01:17:26;;;;;;;;;24.00;22.00;;;;;11.64;73.23;99921.38;5078313;27;45287;-62
2021/10/31 01:20:19;;;;;;;;;18.00;17.75;;;;;11.65;73.30;99923.03;5078234;27;45310;-63
2021/10/31 01:23:11;;;;;;;;;24.75;21.25;;;;;11.67;73.26;99924.50;5077022;27;46431;-63
2021/10/31 01:25:43;;;;;;;;;19.50;18.25;;;;;11.68;73.13;99925.34;5076605;28;45355;-62
2021/10/31 01:31:40;;;;;;;;;20.50;18.50;;;;;11.70;72.87;99918.13;5078045;27;45242;-62
2021/10/31 01:34:19;;;;;;;;;18.50;16.25;;;;;11.70;73.11;99916.31;5076783;27;46555;-62
2021/10/31 01:37:19;;;;;;;;;19.75;17.25;;;;;11.70;73.64;99918.13;5076782;28;45968;-63
2021/10/31 01:39:48;;;;;;;;;18.50;17.50;;;;;11.69;73.67;99919.09;5077682;27;45432;-62
2021/10/31 01:42:21;;;;;;;;;19.75;17.75;;;;;11.68;73.51;99917.47;5076618;28;45181;-63
2021/10/31 01:44:51;;;;;;;;;17.75;15.25;;;;;11.68;73.52;99917.47;5076228;27;45276;-62
2021/10/31 01:47:37;;;;;;;;;16.00;13.75;;;;;11.67;73.35;99911.34;5059559;28;48877;-63
2021/10/31 01:50:24;;;;;;;;;17.50;15.00;;;;;11.68;73.53;99910.38;5077979;28;45325;-62
2021/10/31 01:52:53;;;;;;;;;18.50;15.00;;;;;11.66;73.68;99904.44;5077829;27;45470;-62
2021/10/31 01:55:22;;;;;;;;;15.50;13.00;;;;;11.66;73.68;99899.19;5059031;28;45576;-63
2021/10/31 01:57:48;;;;;;;;;19.50;16.00;;;;;11.66;73.61;99899.19;5077283;27;45912;-62
2021/10/31 02:00:14;;;;;;;;;15.25;13.75;;;;;11.65;73.29;99897.56;5076414;27;45311;-63
2021/10/31 02:02:41;;;;;;;;;14.00;14.00;;;;;11.64;73.38;99892.44;5076383;28;45447;-62
2021/10/31 02:05:08;;;;;;;;;16.25;13.75;;;;;11.63;73.58;99890.78;5059406;28;46677;-62
2021/10/31 02:07:36;;;;;;;;;11.75;11.25;;;;;11.60;73.24;99885.84;5076350;28;45788;-62
2021/10/31 02:10:01;;;;;;;;;14.00;12.00;;;;;11.55;73.65;99878.44;5042201;28;45366;-63
2021/10/31 02:12:27;;;;;;;;;13.50;13.50;;;;;11.56;73.23;99882.72;5077392;28;45480;-62
2021/10/31 02:14:52;;;;;;;;;11.50;11.25;;;;;11.53;73.34;99878.59;5076019;28;75847;-61
2021/10/31 02:17:18;;;;;;;;;16.00;15.25;;;;;11.53;73.59;99880.41;5075082;27;68765;-62
2021/10/31 02:19:44;;;;;;;;;15.25;13.75;;;;;11.52;73.15;99878.75;5042363;28;45352;-62
2021/10/31 02:22:26;;;;;;;;;11.00;10.75;;;;;11.53;73.64;99883.03;5077385;28;45419;-62
2021/10/31 02:24:52;;;;;;;;;12.75;12.75;;;;;11.51;73.58;99880.53;5075789;28;45538;-62
2021/10/31 02:27:18;;;;;;;;;14.50;12.00;;;;;11.51;73.05;99880.53;5075898;28;45324;-62
2021/10/31 02:29:49;;;;;;;;;15.50;14.25;;;;;11.51;73.29;99877.09;5075876;27;45394;-62
2021/10/31 02:32:15;;;;;;;;;15.25;13.00;;;;;11.51;73.14;99879.75;5076042;28;45482;-62
2021/10/31 02:34:40;;;;;;;;;12.25;11.75;;;;;11.48;73.02;99882.69;5075717;27;47659;-61
2021/10/31 02:37:05;;;;;;;;;12.00;12.00;;;;;11.47;73.27;99878.41;5076963;27;45473;-62
2021/10/31 02:39:31;;;;;;;;;13.50;12.00;;;;;11.45;73.15;99880.38;5076268;28;63411;-62
2021/10/31 02:41:57;;;;;;;;;12.50;12.00;;;;;11.45;73.03;99875.09;5075853;28;45383;-62
2021/10/31 02:44:22;;;;;;;;;13.00;11.00;;;;;11.41;72.46;99875.41;5075841;28;74258;-62
2021/10/31 02:46:47;;;;;;;;;12.25;12.00;;;;;11.39;72.82;99869.50;5075708;28;45450;-62
2021/10/31 02:49:13;;;;;;;;;14.50;14.50;;;;;11.36;72.60;99861.91;5076115;28;61025;-62
2021/10/31 02:52:00;;;;;;;;;14.25;10.50;;;;;11.33;72.65;99856.97;5076114;28;60392;-62
2021/10/31 02:54:36;;;;;;;;;12.00;12.00;;;;;11.31;72.08;99845.78;5060068;28;46369;-62
2021/10/31 02:57:18;;;;;;;;;14.25;14.25;;;;;11.27;71.84;99841.81;5075599;27;45264;-62
2021/10/31 02:59:48;;;;;;;;;14.00;12.50;;;;;11.23;71.98;99840.47;5075574;28;45360;-63
2021/10/31 03:02:13;;;;;;;;;14.50;12.25;;;;;11.19;71.96;99844.41;5076748;28;45560;-62
2021/10/31 03:04:39;;;;;;;;;15.50;11.00;;;;;11.14;72.11;99840.44;5076459;28;46434;-62
2021/10/31 03:07:04;;;;;;;;;13.00;11.00;;;;;11.11;72.01;99840.78;5058422;28;45499;-62
2021/10/31 03:09:30;;;;;;;;;13.25;12.75;;;;;11.06;72.07;99840.41;5079648;28;45398;-63
2021/10/31 03:12:00;;;;;;;;;12.50;12.00;;;;;11.01;72.05;99834.81;5079359;28;68099;-61
2021/10/31 03:14:25;;;;;;;;;15.75;14.00;;;;;10.98;72.21;99837.75;5078785;27;45532;-62
2021/10/31 03:16:50;;;;;;;;;15.75;12.75;;;;;10.96;72.02;99834.44;5080364;28;45322;-61
2021/10/31 03:19:16;;;;;;;;;14.50;12.50;;;;;10.94;71.91;99831.16;5080180;27;45270;-61
2021/10/31 03:21:41;;;;;;;;;12.75;10.75;;;;;10.90;72.23;99821.94;5079009;28;45290;-62
2021/10/31 03:24:07;;;;;;;;;15.75;15.75;;;;;10.89;71.73;99822.91;5078997;27;65071;-62
2021/10/31 03:26:33;;;;;;;;;15.50;14.50;;;;;10.87;72.01;99809.91;5079803;27;45207;-62
2021/10/31 03:28:58;;;;;;;;;15.50;14.50;;;;;10.82;71.89;99810.38;5080051;27;45325;-63
2021/10/31 03:31:24;;;;;;;;;13.75;13.00;;;;;10.80;71.53;99801.03;5079236;27;64102;-62
2021/10/31 03:33:49;;;;;;;;;16.00;13.00;;;;;10.76;72.22;99799.69;5079149;28;63255;-62
2021/10/31 03:36:14;;;;;;;;;12.00;12.00;;;;;10.73;71.90;99802.63;5078842;28;70011;-62
2021/10/31 03:38:40;;;;;;;;;13.75;12.50;;;;;10.72;72.30;99809.66;5079018;28;60221;-63
2021/10/31 03:41:05;;;;;;;;;13.50;12.00;;;;;10.70;72.22;99801.09;5079048;28;65856;-62
2021/10/31 03:43:30;;;;;;;;;13.50;11.75;;;;;10.68;71.97;99796.03;5078745;27;68713;-61
2021/10/31 03:45:56;;;;;;;;;13.00;12.00;;;;;10.67;72.20;99804.03;5079600;28;45818;-62
2021/10/31 03:48:22;;;;;;;;;14.00;12.00;;;;;10.67;72.48;99799.63;5078616;28;45352;-62
2021/10/31 03:50:47;;;;;;;;;13.25;13.25;;;;;10.68;73.02;99809.16;5078704;27;67487;-63
2021/10/31 03:53:12;;;;;;;;;10.50;9.00;;;;;10.71;72.80;99794.88;5079330;28;47321;-62
2021/10/31 03:55:38;;;;;;;;;11.00;10.00;;;;;10.72;73.68;99793.91;5079306;27;45427;-62
2021/10/31 03:58:03;;;;;;;;;10.00;10.00;;;;;10.74;74.18;99791.94;5079286;28;45442;-62
2021/10/31 04:00:29;;;;;;;;;9.50;8.75;;;;;10.78;74.46;99795.91;5079507;28;45417;-62
2021/10/31 04:02:54;;;;;;;;;11.50;9.25;;;;;10.81;74.97;99790.34;5078603;27;66379;-63
2021/10/31 04:05:19;;;;;;;;;13.00;12.00;;;;;10.81;75.66;99779.81;5079449;28;45373;-62
2021/10/31 04:07:47;;;;;;;;;14.25;9.00;;;;;10.84;75.48;99774.25;5078870;28;57334;-62
2021/10/31 04:10:12;;;;;;;;;12.25;11.75;;;;;10.88;75.81;99779.22;5077959;28;45538;-62
2021/10/31 04:12:38;;;;;;;;;10.00;10.00;;;;;10.91;75.74;99784.16;5077222;28;66059;-64
2021/10/31 04:15:04;;;;;;;;;10.00;8.25;;;;;10.91;76.41;99766.56;5078851;28;52723;-63
2021/10/31 04:17:29;;;;;;;;;12.75;10.50;;;;;10.94;76.10;99762.81;5079311;28;45266;-62
2021/10/31 04:19:55;;;;;;;;;10.25;9.00;;;;;10.95;76.13;99751.31;5077706;27;46528;-62
2021/10/31 04:22:20;;;;;;;;;9.50;9.00;;;;;10.98;76.75;99743.13;5078073;28;67665;-63
2021/10/31 04:24:46;;;;;;;;;9.75;8.00;;;;;11.02;76.65;99752.34;5076812;28;67326;-62
2021/10/31 04:27:12;;;;;;;;;9.75;9.00;;;;;11.04;76.51;99753.00;5079174;27;45284;-62
2021/10/31 04:29:38;;;;;;;;;10.25;8.25;;;;;11.07;76.58;99746.59;5079064;28;45476;-62
2021/10/31 04:32:04;;;;;;;;;10.00;9.25;;;;;11.10;77.16;99741.84;5078645;27;45465;-63
2021/10/31 04:34:29;;;;;;;;;10.50;8.75;;;;;11.11;77.12;99733.00;5078773;27;45485;-62
2021/10/31 04:36:54;;;;;;;;;9.50;9.50;;;;;11.16;76.64;99736.91;5078303;28;58073;-61
2021/10/31 04:39:20;;;;;;;;;11.25;8.25;;;;;11.19;77.25;99733.97;5077487;28;45585;-63
2021/10/31 04:41:46;;;;;;;;;10.75;7.75;;;;;11.23;77.19;99741.41;5078559;28;45355;-62
2021/10/31 04:44:15;;;;;;;;;10.00;10.00;;;;;11.26;77.16;99732.34;5078910;27;45874;-62
2021/10/31 04:46:40;;;;;;;;;10.50;8.00;;;;;11.29;77.37;99718.88;5077616;28;45312;-62
2021/10/31 04:49:06;;;;;;;;;11.25;8.25;;;;;11.33;77.50;99716.78;5078885;28;45467;-62
2021/10/31 04:51:31;;;;;;;;;9.00;8.00;;;;;11.35;77.53;99728.75;5060423;27;46451;-62
2021/10/31 04:53:56;;;;;;;;;10.25;8.25;;;;;11.38;77.37;99731.06;5078573;28;45298;-63
2021/10/31 04:56:23;;;;;;;;;10.50;8.25;;;;;11.42;77.59;99719.25;5077525;27;45401;-62
2021/10/31 04:58:51;;;;;;;;;8.25;8.00;;;;;11.44;77.29;99726.97;5078573;28;45367;-62
2021/10/31 05:01:17;;;;;;;;;8.75;8.25;;;;;11.47;77.34;99716.13;5078284;27;45552;-62
2021/10/31 05:03:43;;;;;;;;;10.25;8.00;;;;;11.50;77.30;99709.72;5078362;27;45504;-62
2021/10/31 05:06:09;;;;;;;;;8.75;8.25;;;;;11.52;77.30;99710.38;5078478;27;45343;-63
2021/10/31 05:08:34;;;;;;;;;9.00;7.75;;;;;11.54;77.81;99700.53;5078282;27;45269;-63
2021/10/31 05:10:59;;;;;;;;;8.25;7.25;;;;;11.58;77.27;99707.09;5077329;28;73363;-62
2021/10/31 05:13:25;;;;;;;;;6.75;6.75;;;;;11.62;77.20;99702.31;5077798;27;62282;-62
2021/10/31 05:15:50;;;;;;;;;8.00;7.00;;;;;11.66;77.33;99693.94;5078374;28;45231;-62
2021/10/31 05:18:16;;;;;;;;;9.50;7.25;;;;;11.69;77.25;99688.34;5077411;28;65385;-62
2021/10/31 05:20:41;;;;;;;;;8.00;7.00;;;;;11.70;76.71;99684.72;5076958;27;45501;-62
2021/10/31 05:23:06;;;;;;;;;7.75;5.00;;;;;11.70;76.87;99668.13;5077316;28;64196;-62
2021/10/31 05:25:32;;;;;;;;;7.00;5.00;;;;;11.71;76.76;99669.78;5077269;27;59781;-62
2021/10/31 05:27:57;;;;;;;;;7.50;5.00;;;;;11.72;77.39;99661.69;5077725;28;54487;-62
2021/10/31 05:30:22;;;;;;;;;4.25;4.25;;;;;11.75;76.77;99654.47;5076827;28;63168;-62
2021/10/31 05:32:49;;;;;;;;;5.50;5.50;;;;;11.77;76.47;99652.50;5077119;28;64839;-62
2021/10/31 05:35:15;;;;;;;;;4.75;4.75;;;;;11.79;76.61;99645.25;5076862;28;45461;-62
2021/10/31 05:37:47;;;;;;;;;4.00;4.00;;;;;11.78;76.50;99649.72;5059110;28;45450;-63
2021/10/31 05:40:14;;;;;;;;;6.25;4.75;;;;;11.78;77.04;99635.72;5077976;27;46416;-62
2021/10/31 05:42:40;;;;;;;;;6.00;4.75;;;;;11.80;76.50;99633.75;5077916;28;45341;-62
2021/10/31 05:45:07;;;;;;;;;3.00;3.00;;;;;11.81;76.33;99623.06;5078061;27;45297;-63
2021/10/31 05:47:35;;;;;;;;;4.00;3.50;;;;;11.82;76.90;99631.75;5077984;28;45303;-62
2021/10/31 05:50:00;;;;;;;;;4.25;3.00;;;;;11.83;76.55;99638.66;5076524;27;46399;-62
2021/10/31 05:52:25;;;;;;;;;5.25;4.00;;;;;11.85;76.38;99639.31;5076976;28;64326;-62
2021/10/31 05:54:51;;;;;;;;;3.25;3.25;;;;;11.87;76.19;99621.56;5075944;28;62842;-62
2021/10/31 05:57:16;;;;;;;;;4.00;4.00;;;;;11.88;76.16;99618.78;5076914;28;60602;-62
2021/10/31 05:59:41;;;;;;;;;3.00;3.00;;;;;11.90;76.07;99621.22;5076801;27;63757;-63
2021/10/31 06:02:08;;;;;;;;;3.50;3.50;;;;;11.90;76.44;99623.06;5076836;28;61914;-62
2021/10/31 06:04:33;;;;;;;;;3.75;3.50;;;;;11.89;76.01;99624.84;5076594;28;45540;-62
2021/10/31 06:06:59;;;;;;;;;2.50;2.50;;;;;11.91;76.19;99624.69;5076334;28;45604;-63
2021/10/31 06:09:24;;;;;;;;;5.00;3.50;;;;;11.91;76.46;99611.53;5076118;28;48403;-63
2021/10/31 06:11:50;;;;;;;;;3.00;3.00;;;;;11.92;76.38;99606.09;5077028;27;54242;-63
2021/10/31 06:14:15;;;;;;;;;3.25;3.25;;;;;11.90;76.38;99608.06;5076667;28;65006;-62
2021/10/31 06:16:41;;;;;;;;;4.25;3.00;;;;;11.90;76.28;99608.06;5077094;28;50466;-63
2021/10/31 06:19:06;;;;;;;;;4.75;4.00;;;;;11.88;76.65;99596.88;5076237;28;67961;-61
2021/10/31 06:21:31;;;;;;;;;4.00;3.00;;;;;11.92;76.53;99584.22;5077351;28;45236;-62
2021/10/31 06:23:57;;;;;;;;;4.75;4.00;;;;;11.92;76.12;99577.13;5076587;28;56286;-62
2021/10/31 06:26:22;;;;;;;;;3.00;3.00;;;;;11.93;76.77;99581.41;5076710;28;65203;-62
2021/10/31 06:28:48;;;;;;;;;7.75;4.00;;;;;11.92;76.43;99592.13;5076930;27;45327;-62
2021/10/31 06:31:13;;;;;;;;;5.00;4.00;;;;;11.92;76.49;99587.66;5077112;28;45384;-63
2021/10/31 06:33:39;;;;;;;;;4.75;3.00;;;;;11.93;76.56;99578.78;5076355;27;63769;-61
2021/10/31 06:36:04;;;;;;;;;5.00;3.50;;;;;11.94;76.14;99582.22;5076475;28;62605;-62
2021/10/31 06:38:29;;;;;;;;;4.25;3.00;;;;;11.93;76.50;99573.50;5076413;28;55628;-63
2021/10/31 06:40:55;;;;;;;;;3.00;3.00;;;;;11.95;76.05;99582.06;5076528;28;62722;-62
2021/10/31 06:43:20;;;;;;;;;3.75;3.50;;;;;11.96;76.26;99567.06;5075926;28;45346;-62
2021/10/31 06:45:46;;;;;;;;;4.50;4.00;;;;;11.96;75.88;99560.00;5075195;28;60034;-63
2021/10/31 06:48:11;;;;;;;;;3.25;3.25;;;;;11.96;76.55;99556.53;5076829;28;45438;-62
2021/10/31 06:50:37;;;;;;;;;5.25;4.75;;;;;11.96;75.91;99551.28;5076878;28;45421;-63
2021/10/31 06:53:02;;;;;;;;;7.75;3.50;;;;;11.95;75.90;99553.09;5076973;28;45342;-62
2021/10/31 06:55:27;;;;;;;;;5.75;3.50;;;;;11.94;75.85;99542.72;5076073;27;62321;-63
2021/10/31 06:57:55;;;;;;;;;4.00;4.00;;;;;11.94;76.02;99548.00;5075914;28;69484;-63
2021/10/31 07:00:20;;;;;;;;;5.75;4.00;;;;;11.94;75.83;99554.09;5076735;27;45325;-62
2021/10/31 07:02:46;;;;;;;;;7.00;4.00;;;;;11.96;75.85;99564.44;5076815;28;45323;-62
2021/10/31 07:05:11;;;;;;;;;4.50;3.75;;;;;11.96;76.31;99560.00;5076661;28;45361;-62
2021/10/31 07:07:37;;;;;;;;;4.00;4.00;;;;;11.96;76.29;99554.75;5075954;27;57228;-62
2021/10/31 07:10:03;;;;;;;;;4.75;4.75;;;;;11.97;75.90;99537.97;5074922;27;47860;-63
2021/10/31 07:12:28;;;;;;;;;6.00;4.00;;;;;11.97;75.88;99535.31;5076501;28;45371;-63
2021/10/31 07:14:53;;;;;;;;;6.00;6.00;;;;;11.99;76.28;99536.00;5074026;28;64611;-61
2021/10/31 07:17:19;;;;;;;;;7.75;6.25;;;;;11.99;76.10;99514.94;5076514;28;46330;-63
2021/10/31 07:19:44;;;;;;;;;5.50;5.50;;;;;11.99;75.75;99514.09;5075852;28;65436;-61
2021/10/31 07:22:10;;;;;;;;;6.75;5.75;;;;;12.00;75.99;99516.59;5075407;27;45344;-62
2021/10/31 07:24:36;;;;;;;;;5.00;5.00;;;;;12.00;75.73;99513.97;5076284;28;45402;-62
2021/10/31 07:27:02;;;;;;;;;12.00;6.25;;;;;12.01;75.91;99518.22;5076230;28;45310;-61
2021/10/31 07:29:27;;;;;;;;;8.00;7.00;;;;;12.02;75.81;99524.31;5076148;28;45428;-62
2021/10/31 07:31:52;;;;;;;;;8.25;6.00;;;;;12.02;75.67;99513.78;5076511;28;45385;-62
2021/10/31 07:34:18;;;;;;;;;8.25;6.00;;;;;12.06;76.06;99515.06;5076350;28;45501;-63
2021/10/31 07:36:44;;;;;;;;;6.25;6.00;;;;;12.09;75.67;99508.66;5076261;28;45432;-62
2021/10/31 07:39:10;;;;;;;;;10.50;7.00;;;;;12.09;76.07;99503.41;5075535;28;45907;-62
2021/10/31 07:41:36;;;;;;;;;7.00;6.25;;;;;12.11;76.17;99504.06;5076310;28;45457;-62
2021/10/31 07:44:02;;;;;;;;;8.25;7.25;;;;;12.12;75.94;99501.22;5076158;28;45430;-62
2021/10/31 07:46:27;;;;;;;;;5.00;4.00;;;;;12.16;75.92;99493.81;5074774;28;46705;-62
2021/10/31 07:48:52;;;;;;;;;8.00;4.50;;;;;12.17;75.69;99485.75;5075184;28;61012;-62
2021/10/31 07:51:18;;;;;;;;;5.00;5.00;;;;;12.19;75.75;99490.00;5075500;28;59158;-63
2021/10/31 07:53:43;;;;;;;;;5.25;4.50;;;;;12.19;75.98;99485.56;5075088;28;45582;-63
2021/10/31 07:56:12;;;;;;;;;5.00;5.00;;;;;12.22;76.28;99479.94;5078818;28;64154;-62
2021/10/31 07:58:37;;;;;;;;;4.00;4.00;;;;;12.23;76.21;99484.22;5078939;27;46007;-62
2021/10/31 08:01:03;;;;;;;;;6.25;5.00;;;;;12.26;76.42;99489.13;5079593;27;45358;-62
2021/10/31 08:03:29;;;;;;;;;5.00;4.00;;;;;12.28;75.96;99487.16;5079398;27;45322;-62
2021/10/31 08:05:54;;;;;;;;;6.50;6.50;;;;;12.32;76.38;99482.38;5077940;28;74724;-63
2021/10/31 08:08:22;;;;;;;;;6.00;6.00;;;;;12.34;76.43;99474.28;5078431;27;66611;-62
2021/10/31 08:10:48;;;;;;;;;5.00;4.00;;;;;12.37;76.06;99468.66;5079421;27;45232;-62
2021/10/31 08:13:20;;;;;;;;;5.00;3.50;;;;;12.42;76.77;99458.44;5079253;27;45471;-63
2021/10/31 08:15:45;;;;;;;;;8.00;6.25;;;;;12.47;76.59;99454.28;5077789;27;46587;-63
2021/10/31 08:18:10;;;;;;;;;4.00;4.00;;;;;12.52;76.42;99450.28;5079185;28;45338;-63
2021/10/31 08:20:36;;;;;;;;;6.00;5.00;;;;;12.57;76.37;99454.06;5078392;28;57815;-63
2021/10/31 08:23:03;;;;;;;;;5.25;5.25;;;;;12.61;76.39;99446.59;5078296;28;62323;-63
2021/10/31 08:25:29;;;;;;;;;6.25;5.75;;;;;12.65;76.78;99452.38;5078811;28;45319;-63
2021/10/31 08:27:55;;;;;;;;;2.25;2.25;;;;;12.70;76.57;99455.28;5078169;28;64922;-62
2021/10/31 08:30:28;;;;;;;;;3.75;2.00;;;;;12.75;76.41;99448.47;5079009;28;45303;-62
2021/10/31 08:32:54;;;;;;;;;5.25;5.25;;;;;12.81;75.86;99436.41;5079011;28;45268;-62
2021/10/31 08:35:19;;;;;;;;;5.75;4.00;;;;;12.84;75.63;99436.03;5077425;28;47424;-63
2021/10/31 08:37:45;;;;;;;;;7.25;6.00;;;;;12.88;76.19;99426.78;5078778;28;45240;-63
2021/10/31 08:40:10;;;;;;;;;5.00;5.00;;;;;12.91;76.13;99423.78;5078237;28;52469;-63
2021/10/31 08:42:36;;;;;;;;;4.00;3.75;;;;;12.98;75.48;99423.88;5078689;28;45239;-63
2021/10/31 08:45:02;;;;;;;;;4.75;3.00;;;;;13.02;75.89;99419.88;5078699;28;46220;-62
2021/10/31 08:47:28;;;;;;;;;7.25;4.00;;;;;13.07;75.80;99414.09;5078698;28;45455;-63
2021/10/31 08:49:53;;;;;;;;;4.25;4.00;;;;;13.13;75.00;99404.63;5078774;28;45293;-62
2021/10/31 08:52:19;;;;;;;;;5.75;5.25;;;;;13.18;75.62;99397.84;5078056;27;56247;-62
2021/10/31 08:54:45;;;;;;;;;8.50;6.75;;;;;13.21;74.96;99394.00;5078398;27;45349;-63
2021/10/31 08:57:10;;;;;;;;;5.75;4.00;;;;;13.27;74.70;99384.53;5078422;27;45333;-63
2021/10/31 08:59:36;;;;;;;;;8.00;5.00;;;;;13.30;74.62;99385.00;5077850;27;56919;-63
2021/10/31 09:02:02;;;;;;;;;7.75;3.25;;;;;13.35;75.05;99387.91;5077174;28;45353;-61
2021/10/31 09:04:28;;;;;;;;;4.00;3.75;;;;;13.39;74.67;99377.81;5076515;28;46707;-63
2021/10/31 09:06:54;;;;;;;;;5.50;4.00;;;;;13.43;74.37;99376.47;5077243;28;45336;-63
2021/10/31 09:09:19;;;;;;;;;3.25;3.00;;;;;13.46;74.65;99357.63;5078415;27;45435;-62
2021/10/31 09:11:46;;;;;;;;;5.00;4.00;;;;;13.52;74.24;99355.25;5077759;28;45583;-62
2021/10/31 09:14:12;;;;;;;;;4.00;3.50;;;;;13.56;74.34;99359.16;5077833;28;45574;-63
2021/10/31 09:16:37;;;;;;;;;5.00;5.00;;;;;13.60;74.55;99347.25;5077945;27;45393;-63
2021/10/31 09:19:03;;;;;;;;;5.00;5.00;;;;;13.64;74.56;99343.22;5077068;27;64228;-63
2021/10/31 09:21:28;;;;;;;;;4.00;4.00;;;;;13.69;74.43;99335.56;5077667;27;59624;-63
2021/10/31 09:23:54;;;;;;;;;4.00;4.00;;;;;13.74;74.03;99333.19;5077526;27;45312;-62
2021/10/31 09:26:19;;;;;;;;;6.75;6.25;;;;;13.77;73.96;99316.16;5076859;27;45442;-63
2021/10/31 09:28:46;;;;;;;;;4.50;4.25;;;;;13.82;74.18;99312.94;5077000;28;45884;-62
2021/10/31 09:31:12;;;;;;;;;5.00;3.25;;;;;13.87;73.65;99303.47;5076859;27;45534;-62
2021/10/31 09:33:39;;;;;;;;;6.00;5.00;;;;;13.92;73.93;99287.06;5076426;27;45417;-61
2021/10/31 09:36:04;;;;;;;;;7.75;3.00;;;;;13.97;73.45;99282.03;5075884;28;45445;-63
2021/10/31 09:38:31;;;;;;;;;3.00;3.00;;;;;14.02;73.45;99286.75;5077374;27;51582;-62
2021/10/31 09:40:57;;;;;;;;;5.50;4.00;;;;;14.07;73.38;99287.81;5077825;27;45366;-61
2021/10/31 09:43:25;;;;;;;;;4.00;4.00;;;;;14.13;72.86;99293.34;5077645;27;45586;-62
2021/10/31 09:45:50;;;;;;;;;5.00;3.25;;;;;14.20;73.24;99288.94;5077623;27;45261;-62
2021/10/31 09:48:16;;;;;;;;;6.00;6.00;;;;;14.25;72.82;99283.91;5076661;28;45403;-63
2021/10/31 09:50:47;;;;;;;;;3.75;3.75;;;;;14.31;72.89;99287.59;5078049;27;45153;-62
2021/10/31 09:53:16;;;;;;;;;5.00;5.00;;;;;14.36;72.78;99267.50;5077340;28;45462;-63
2021/10/31 09:55:41;;;;;;;;;5.50;2.50;;;;;14.42;72.64;99259.81;5077274;27;45958;-62
2021/10/31 09:58:15;;;;;;;;;4.00;4.00;;;;;14.49;72.45;99256.22;5077749;28;45244;-62
2021/10/31 10:00:44;;;;;;;;;3.00;2.00;;;;;14.57;71.67;99247.31;5076172;28;45555;-62
2021/10/31 10:03:23;;;;;;;;;5.50;4.00;;;;;14.63;72.37;99235.97;5076238;27;45523;-63
2021/10/31 10:06:06;;;;;;;;;2.50;2.50;;;;;14.73;72.28;99248.88;5077269;27;45354;-62
2021/10/31 10:08:31;;;;;;;;;6.00;3.25;;;;;14.85;71.71;99235.91;5076707;28;45399;-64
2021/10/31 10:10:56;;;;;;;;;3.25;3.25;;;;;14.93;71.21;99238.38;5075195;28;62974;-63
2021/10/31 10:13:24;;;;;;;;;3.00;3.00;;;;;15.03;70.72;99234.56;5076575;28;60463;-62
2021/10/31 10:15:50;;;;;;;;;3.00;3.00;;;;;15.11;70.58;99227.25;5076745;28;45858;-63
2021/10/31 10:18:29;;;;;;;;;3.50;1.75;;;;;15.24;70.66;99226.50;5077182;27;45296;-62
2021/10/31 10:20:55;;;;;;;;;3.75;2.75;;;;;15.33;70.27;99207.81;5077200;28;45610;-62
2021/10/31 10:23:21;;;;;;;;;3.50;1.75;;;;;15.41;69.54;99204.94;5075589;28;45562;-63
2021/10/31 10:25:46;;;;;;;;;1.75;1.75;;;;;15.51;69.28;99215.16;5076756;28;60575;-63
2021/10/31 10:28:25;;;;;;;;;2.00;2.00;;;;;15.61;69.59;99205.00;5075812;28;68236;-62
2021/10/31 10:30:50;;;;;;;;;3.00;2.00;;;;;15.71;69.21;99207.25;5076981;28;45393;-63
2021/10/31 10:33:19;;;;;;;;;3.25;2.75;;;;;15.80;69.07;99195.44;5075955;28;66663;-63
2021/10/31 10:35:46;;;;;;;;;3.00;3.00;;;;;15.90;69.05;99191.59;5076933;27;45742;-63
2021/10/31 10:38:16;;;;;;;;;6.00;4.00;;;;;15.99;68.97;99185.06;5077122;28;45547;-63
2021/10/31 10:40:41;;;;;;;;;4.50;3.75;;;;;16.12;68.71;99174.47;5076999;28;45251;-63
2021/10/31 10:43:06;;;;;;;;;5.00;3.00;;;;;16.24;68.27;99171.19;5075531;28;47091;-62
2021/10/31 10:45:32;;;;;;;;;3.75;2.00;;;;;16.34;68.34;99163.63;5076367;28;56784;-62
2021/10/31 10:47:59;;;;;;;;;3.00;3.00;;;;;16.42;68.46;99159.91;5077091;28;45343;-63
2021/10/31 10:50:26;;;;;;;;;7.75;5.25;;;;;16.52;67.79;99152.34;5076791;27;45577;-63
2021/10/31 10:52:52;;;;;;;;;4.00;4.00;;;;;16.65;67.83;99158.63;5075333;28;46188;-62
2021/10/31 10:55:24;;;;;;;;;6.00;4.00;;;;;16.80;67.90;99148.56;5076536;28;45305;-63
2021/10/31 10:57:54;;;;;;;;;2.00;2.00;;;;;16.96;67.94;99149.09;5076664;28;45394;-62
2021/10/31 11:00:24;;;;;;;;;4.00;2.75;;;;;17.13;67.36;99146.78;5076573;28;45388;-63
2021/10/31 11:03:02;;;;;;;;;2.25;2.25;;;;;17.31;66.59;99164.63;5076273;28;46257;-63
2021/10/31 11:05:29;;;;;;;;;2.00;2.00;;;;;17.44;66.88;99145.19;5076401;27;45348;-64
2021/10/31 11:07:54;;;;;;;;;3.25;3.00;;;;;17.62;66.12;99150.53;5076091;28;45357;-63
2021/10/31 11:10:30;;;;;;;;;1.50;1.50;;;;;17.79;65.69;99142.03;5076148;28;56129;-63
2021/10/31 11:13:00;;;;;;;;;3.75;3.00;;;;;17.92;65.61;99141.91;5076043;27;47407;-62
2021/10/31 11:15:30;;;;;;;;;2.00;1.75;;;;;18.06;65.39;99152.41;5076290;28;45885;-62
2021/10/31 11:17:58;;;;;;;;;2.00;1.00;;;;;18.15;64.60;99137.03;5074676;28;45411;-60
2021/10/31 11:20:32;;;;;;;;;2.00;2.00;;;;;18.22;64.09;99143.88;5075449;28;45483;-60
2021/10/31 11:23:00;;;;;;;;;3.00;2.50;;;;;18.26;63.91;99138.97;5075942;28;45331;-62
2021/10/31 11:25:26;;;;;;;;;2.00;2.00;;;;;18.31;64.03;99139.06;5074790;28;45839;-61
2021/10/31 11:27:52;;;;;;;;;2.25;2.00;;;;;18.35;63.78;99126.16;5076519;28;45416;-60
2021/10/31 11:30:19;;;;;;;;;2.00;2.00;;;;;18.39;64.12;99138.00;5078791;28;45608;-60
2021/10/31 11:32:44;;;;;;;;;3.00;2.25;;;;;18.41;63.65;99119.13;5079272;28;45280;-61
2021/10/31 11:35:13;;;;;;;;;3.00;2.00;;;;;18.43;64.03;99104.59;5078559;28;45352;-61